Time;durP1;ratioP1;P1;durP2;ratioP2;P2;SDS_P1;SDS_P2;PMS_P1;PMS_P2;Temp;Humidity;BMP_temperature;BMP_pressure;BME280_temperature;BME280_humidity;BME280_pressure;Samples;Min_cycle;Max_cycle;Signal;HPM_P1;HPM_P2
2022/11/17 00:00:13;;;;;;;7.05;2.50;;;10.30;99.30;;;;;;5053111;28;20457;-71
2022/11/17 00:02:41;;;;;;;3.65;2.17;;;10.30;98.80;;;;;;5057800;28;20428;-68
2022/11/17 00:05:08;;;;;;;8.20;2.80;;;10.30;98.80;;;;;;5064994;28;20518;-71
2022/11/17 00:07:35;;;;;;;3.90;2.00;;;10.30;99.00;;;;;;5066708;28;20442;-70
2022/11/17 00:10:02;;;;;;;3.95;2.20;;;10.30;98.80;;;;;;5064142;28;20439;-70
2022/11/17 00:15:13;;;;;;;5.22;2.20;;;10.40;98.30;;;;;;5054146;28;20912;-69
2022/11/17 00:17:41;;;;;;;4.53;2.00;;;10.40;98.30;;;;;;5065156;28;20955;-68
2022/11/17 00:22:55;;;;;;;3.30;1.73;;;10.40;97.70;;;;;;5061616;28;20791;-70
2022/11/17 00:25:21;;;;;;;3.20;1.70;;;10.50;97.60;;;;;;5057902;28;20432;-68
2022/11/17 00:27:48;;;;;;;4.07;1.77;;;10.50;97.40;;;;;;5060008;28;20515;-66
2022/11/17 00:35:50;;;;;;;3.60;1.80;;;10.60;97.00;;;;;;5063810;28;20430;-69
2022/11/17 00:38:17;;;;;;;3.50;1.70;;;10.60;96.90;;;;;;5065523;28;20474;-68
2022/11/17 00:40:44;;;;;;;3.53;1.60;;;10.60;96.30;;;;;;5062134;28;20926;-69
2022/11/17 00:43:10;;;;;;;2.60;1.38;;;10.70;96.30;;;;;;5056634;28;20445;-68
2022/11/17 00:45:37;;;;;;;2.67;1.40;;;10.70;96.10;;;;;;5057535;28;20428;-69
2022/11/17 00:48:06;;;;;;;3.40;1.45;;;10.70;95.60;;;;;;5062638;28;20961;-68
2022/11/17 00:50:33;;;;;;;2.90;1.40;;;10.70;95.60;;;;;;5061560;28;20427;-68
2022/11/17 00:53:00;;;;;;;5.15;1.63;;;10.80;95.30;;;;;;5061345;28;20442;-68
2022/11/17 00:55:26;;;;;;;3.78;1.80;;;10.80;94.70;;;;;;5055430;28;20435;-68
2022/11/17 00:57:53;;;;;;;2.90;1.38;;;10.80;94.80;;;;;;5061848;28;20436;-68
2022/11/17 01:00:21;;;;;;;3.42;2.00;;;10.90;94.80;;;;;;5056026;28;20436;-68
2022/11/17 01:02:47;;;;;;;3.05;1.58;;;10.80;95.00;;;;;;5059365;28;20459;-68
2022/11/17 01:05:16;;;;;;;5.93;2.00;;;10.90;95.40;;;;;;5059212;28;20431;-68
2022/11/17 01:07:42;;;;;;;3.92;2.17;;;10.80;95.30;;;;;;5058585;28;20436;-68
2022/11/17 01:10:10;;;;;;;3.88;2.00;;;10.80;95.50;;;;;;5065156;28;20427;-68
2022/11/17 01:12:36;;;;;;;4.80;1.90;;;10.80;95.50;;;;;;5062987;28;20946;-70
2022/11/17 01:15:03;;;;;;;2.92;1.88;;;10.80;96.00;;;;;;5061948;28;20460;-67
2022/11/17 01:17:30;;;;;;;2.65;1.70;;;10.70;96.10;;;;;;5057197;28;20440;-68
2022/11/17 01:19:57;;;;;;;3.88;1.70;;;10.60;96.50;;;;;;5065727;28;20435;-69
2022/11/17 01:22:25;;;;;;;4.20;1.50;;;10.60;96.70;;;;;;5064531;28;20423;-67
2022/11/17 01:24:52;;;;;;;3.10;1.50;;;10.60;97.00;;;;;;5060273;28;20451;-67
2022/11/17 01:27:19;;;;;;;2.63;1.70;;;10.50;97.30;;;;;;5054524;28;20442;-68
2022/11/17 01:29:45;;;;;;;4.35;1.70;;;10.50;97.00;;;;;;5056649;28;20442;-68
2022/11/17 01:32:12;;;;;;;2.88;1.60;;;10.50;96.90;;;;;;5046152;28;20435;-66
2022/11/17 01:34:39;;;;;;;3.75;1.80;;;10.50;97.00;;;;;;5027941;28;20433;-66
2022/11/17 01:37:21;;;;;;;3.70;2.00;;;10.50;96.90;;;;;;5030555;28;20437;-66
2022/11/17 01:39:49;;;;;;;3.00;2.00;;;10.50;96.90;;;;;;5029744;28;21201;-66
2022/11/17 01:42:19;;;;;;;3.17;1.70;;;10.50;97.30;;;;;;5027262;28;21009;-67
2022/11/17 01:44:56;;;;;;;2.80;1.70;;;10.50;97.20;;;;;;5028320;28;20925;-66
2022/11/17 01:47:27;;;;;;;3.35;1.85;;;10.50;97.00;;;;;;5030448;28;20433;-66
2022/11/17 01:49:58;;;;;;;3.03;1.83;;;10.50;97.00;;;;;;5028856;28;20425;-70
2022/11/17 01:52:26;;;;;;;3.05;1.70;;;10.50;97.10;;;;;;5029866;28;20427;-68
2022/11/17 01:54:55;;;;;;;2.80;1.60;;;10.50;97.10;;;;;;5028964;28;20428;-67
2022/11/17 01:57:26;;;;;;;2.70;1.70;;;10.50;96.90;;;;;;5030645;28;20708;-67
2022/11/17 01:59:56;;;;;;;2.25;1.42;;;10.50;97.10;;;;;;5031717;28;20431;-67
2022/11/17 02:02:24;;;;;;;2.85;1.38;;;10.50;97.50;;;;;;5029782;28;20427;-66
2022/11/17 02:04:59;;;;;;;3.38;1.30;;;10.50;97.00;;;;;;5029356;28;21431;-68
2022/11/17 02:07:30;;;;;;;3.40;1.50;;;10.50;96.50;;;;;;5029143;28;20436;-68
2022/11/17 02:09:59;;;;;;;2.23;1.67;;;10.60;96.50;;;;;;5029331;28;20508;-68
2022/11/17 02:12:27;;;;;;;2.60;1.40;;;10.60;96.50;;;;;;5029145;28;20433;-67
2022/11/17 02:14:54;;;;;;;2.20;1.50;;;10.60;96.70;;;;;;5028156;28;20515;-67
2022/11/17 02:17:23;;;;;;;3.70;1.50;;;10.60;96.70;;;;;;5029897;28;20435;-67
2022/11/17 02:20:05;;;;;;;2.75;1.40;;;10.60;96.70;;;;;;5029472;28;20423;-68
2022/11/17 02:22:59;;;;;;;2.77;1.20;;;10.60;97.10;;;;;;5030133;28;21092;-67
2022/11/17 02:25:42;;;;;;;2.72;1.40;;;10.60;97.30;;;;;;5035745;28;20435;-66
2022/11/17 02:28:17;;;;;;;2.00;0.90;;;10.50;97.50;;;;;;5032793;28;20436;-66
2022/11/17 02:30:56;;;;;;;1.80;1.20;;;10.60;97.50;;;;;;5030192;28;20656;-67
2022/11/17 02:33:34;;;;;;;2.00;1.23;;;10.60;97.70;;;;;;5027020;28;20427;-68
2022/11/17 02:36:04;;;;;;;3.00;1.20;;;10.60;97.10;;;;;;5030744;28;20427;-67
2022/11/17 02:38:35;;;;;;;2.80;1.20;;;10.60;97.10;;;;;;5032410;28;20800;-66
2022/11/17 02:41:08;;;;;;;2.33;1.20;;;10.60;97.30;;;;;;5028742;28;20438;-67
2022/11/17 02:46:31;;;;;;;2.00;1.02;;;10.60;97.40;;;;;;5029324;28;20434;-68
2022/11/17 02:49:01;;;;;;;2.70;0.90;;;10.60;97.50;;;;;;5028693;28;21274;-68
2022/11/17 02:51:29;;;;;;;4.03;1.27;;;10.60;97.10;;;;;;5028602;28;20431;-68
2022/11/17 02:53:58;;;;;;;1.67;0.90;;;10.60;96.90;;;;;;5029006;28;20440;-67
2022/11/17 02:56:26;;;;;;;1.20;0.90;;;10.70;96.60;;;;;;5027753;28;20506;-67
2022/11/17 02:58:59;;;;;;;2.05;0.90;;;10.80;96.40;;;;;;5027475;28;20432;-67
2022/11/17 03:01:54;;;;;;;2.15;1.00;;;10.80;96.20;;;;;;5029179;28;20446;-67
2022/11/17 03:04:30;;;;;;;2.50;0.98;;;10.80;96.00;;;;;;5028632;28;20472;-67
2022/11/17 03:07:07;;;;;;;1.77;0.80;;;10.90;95.70;;;;;;5030284;28;21154;-67
2022/11/17 03:09:44;;;;;;;1.70;0.90;;;10.90;95.50;;;;;;5032486;28;22628;-67
2022/11/17 03:12:18;;;;;;;1.40;1.00;;;10.90;95.40;;;;;;5032895;28;20450;-67
2022/11/17 03:14:53;;;;;;;2.15;1.20;;;10.90;95.50;;;;;;5032462;28;22035;-68
2022/11/17 03:17:27;;;;;;;2.20;1.00;;;10.90;95.30;;;;;;5032080;28;20804;-67
2022/11/17 03:19:58;;;;;;;1.77;0.75;;;10.90;95.40;;;;;;5033232;28;20427;-67
2022/11/17 03:22:28;;;;;;;1.88;0.93;;;11.00;95.10;;;;;;5032243;28;20431;-67
2022/11/17 03:25:00;;;;;;;1.40;0.82;;;10.90;95.40;;;;;;5031582;28;20431;-66
2022/11/17 03:27:29;;;;;;;1.25;0.70;;;11.00;95.10;;;;;;5030803;28;20437;-67
2022/11/17 03:30:01;;;;;;;1.10;0.80;;;11.00;95.10;;;;;;5031935;28;21048;-67
2022/11/17 03:32:32;;;;;;;1.60;0.70;;;11.00;95.00;;;;;;5030344;28;20535;-68
2022/11/17 03:35:05;;;;;;;2.92;1.00;;;11.00;95.20;;;;;;5032780;28;20431;-67
2022/11/17 03:37:34;;;;;;;1.88;1.10;;;10.90;95.10;;;;;;5031723;28;20476;-66
2022/11/17 03:40:05;;;;;;;1.80;0.80;;;10.90;95.30;;;;;;5031673;28;20441;-66
2022/11/17 03:42:36;;;;;;;1.90;0.50;;;10.80;95.40;;;;;;5028689;28;20437;-67
2022/11/17 03:45:09;;;;;;;1.30;0.70;;;10.80;95.30;;;;;;5032154;28;20432;-68
2022/11/17 03:47:36;;;;;;;1.40;0.60;;;10.80;95.40;;;;;;5033343;28;20435;-68
2022/11/17 03:50:09;;;;;;;2.47;0.80;;;10.80;95.40;;;;;;5030921;28;20427;-68
2022/11/17 03:52:37;;;;;;;1.13;0.93;;;10.80;95.40;;;;;;5031313;28;21194;-68
2022/11/17 03:55:06;;;;;;;1.20;1.00;;;10.70;95.50;;;;;;5029277;28;20446;-70
2022/11/17 03:57:38;;;;;;;2.25;0.80;;;10.70;95.70;;;;;;5031608;28;20436;-68
2022/11/17 04:00:08;;;;;;;1.38;0.73;;;10.60;95.60;;;;;;5033461;28;20546;-67
2022/11/17 04:02:35;;;;;;;1.20;1.00;;;10.70;95.80;;;;;;5030138;28;20427;-68
2022/11/17 04:05:05;;;;;;;2.10;0.90;;;10.60;95.70;;;;;;5030364;28;20427;-67
2022/11/17 04:07:33;;;;;;;1.70;0.93;;;10.70;95.80;;;;;;5032444;28;20431;-69
2022/11/17 04:10:00;;;;;;;2.15;0.80;;;10.60;95.70;;;;;;5028837;28;20441;-67
2022/11/17 04:17:57;;;;;;;1.47;0.80;;;10.60;95.70;;;;;;5030553;28;20429;-67
2022/11/17 04:20:25;;;;;;;2.65;0.80;;;10.60;95.70;;;;;;5029543;28;20810;-68
2022/11/17 04:31:04;;;;;;;1.30;0.90;;;10.50;96.00;;;;;;5029870;28;20505;-68
2022/11/17 04:33:31;;;;;;;2.60;1.40;;;10.50;96.10;;;;;;5030069;28;20434;-68
2022/11/17 04:35:58;;;;;;;1.08;0.80;;;10.50;96.30;;;;;;5032189;28;20438;-67
2022/11/17 04:38:25;;;;;;;1.50;0.90;;;10.50;96.20;;;;;;5038712;28;20440;-67
2022/11/17 04:43:37;;;;;;;1.80;1.20;;;10.50;96.40;;;;;;5031015;28;20448;-68
2022/11/17 04:46:06;;;;;;;2.07;1.00;;;10.50;96.20;;;;;;5029996;28;20427;-66
2022/11/17 04:48:32;;;;;;;2.05;1.20;;;10.50;95.90;;;;;;5030538;28;20433;-69
2022/11/17 04:50:59;;;;;;;1.75;1.10;;;10.60;95.80;;;;;;5030446;28;20439;-66
2022/11/17 04:53:26;;;;;;;1.83;1.13;;;10.60;95.80;;;;;;5028198;28;20957;-67
2022/11/17 04:55:53;;;;;;;2.08;1.10;;;10.60;95.90;;;;;;5031577;28;20437;-66
2022/11/17 04:58:19;;;;;;;2.08;1.10;;;10.60;95.70;;;;;;5028692;28;20437;-67
2022/11/17 05:00:46;;;;;;;2.75;1.30;;;10.60;95.60;;;;;;5029195;28;20439;-66
2022/11/17 05:03:14;;;;;;;1.50;1.20;;;10.70;95.30;;;;;;5029500;28;20424;-69
2022/11/17 05:05:44;;;;;;;1.83;0.93;;;10.70;95.20;;;;;;5031034;28;20469;-67
2022/11/17 05:08:11;;;;;;;2.05;1.10;;;10.80;95.00;;;;;;5031001;28;20427;-69
2022/11/17 05:13:36;;;;;;;1.45;1.15;;;10.80;94.80;;;;;;4964090;28;20542;-76
2022/11/17 05:18:49;;;;;;;2.10;1.10;;;10.80;94.80;;;;;;4990577;28;20533;-76
2022/11/17 05:21:16;;;;;;;2.50;1.20;;;10.90;94.80;;;;;;5011787;28;20417;-75
2022/11/17 05:23:53;;;;;;;2.60;1.20;;;10.90;94.60;;;;;;5038905;28;20429;-71
2022/11/17 05:26:22;;;;;;;1.60;1.10;;;10.90;94.70;;;;;;5035089;28;20777;-75
2022/11/17 05:28:48;;;;;;;2.10;1.20;;;10.90;94.90;;;;;;5036480;28;20429;-75
2022/11/17 05:31:16;;;;;;;2.28;1.35;;;10.90;94.80;;;;;;5036811;28;20425;-73
2022/11/17 05:33:43;;;;;;;2.40;1.30;;;10.80;95.00;;;;;;5035921;28;20926;-74
2022/11/17 05:36:11;;;;;;;2.35;1.20;;;10.80;95.10;;;;;;5046780;28;20513;-74
2022/11/17 05:38:38;;;;;;;1.80;1.10;;;10.80;95.60;;;;;;5048068;28;20415;-74
2022/11/17 05:41:06;;;;;;;3.30;1.40;;;10.80;96.00;;;;;;5032876;28;20910;-75
2022/11/17 05:43:32;;;;;;;2.28;1.20;;;10.70;96.20;;;;;;5039994;28;20432;-74
2022/11/17 05:45:59;;;;;;;3.30;1.00;;;10.70;96.50;;;;;;5042555;28;20984;-74
2022/11/17 05:48:26;;;;;;;2.45;1.10;;;10.70;96.40;;;;;;5035459;28;20449;-75
2022/11/17 05:50:53;;;;;;;3.05;1.50;;;10.70;96.60;;;;;;5035767;28;20492;-75
2022/11/17 05:53:22;;;;;;;4.80;1.60;;;10.70;96.40;;;;;;5044343;28;20425;-75
2022/11/17 05:55:49;;;;;;;2.10;1.20;;;10.70;96.50;;;;;;5035497;28;20438;-76
2022/11/17 05:58:20;;;;;;;2.88;1.45;;;10.70;96.50;;;;;;5041463;28;20440;-74
2022/11/17 06:00:49;;;;;;;3.15;1.60;;;10.80;96.20;;;;;;5039907;28;20436;-77
2022/11/17 06:03:20;;;;;;;1.50;1.30;;;10.70;96.70;;;;;;5037951;28;20725;-76
2022/11/17 06:05:48;;;;;;;2.40;1.40;;;10.70;96.70;;;;;;5044988;28;22376;-78
2022/11/17 06:08:15;;;;;;;4.40;1.70;;;10.70;97.10;;;;;;5043284;28;20523;-77
2022/11/17 06:10:44;;;;;;;2.88;1.60;;;10.60;97.40;;;;;;5048391;28;20443;-76
2022/11/17 06:13:10;;;;;;;3.72;2.10;;;10.60;97.70;;;;;;5037289;28;21232;-77
2022/11/17 06:15:37;;;;;;;3.40;1.73;;;10.50;97.90;;;;;;5036464;28;20441;-76
2022/11/17 06:18:09;;;;;;;2.90;1.90;;;10.60;98.20;;;;;;5039089;28;20439;-74
2022/11/17 06:20:41;;;;;;;3.55;1.70;;;10.50;98.50;;;;;;5040264;28;20907;-76
2022/11/17 06:23:09;;;;;;;3.22;1.70;;;10.50;98.60;;;;;;5030802;28;20474;-77
2022/11/17 06:25:38;;;;;;;3.80;1.67;;;10.50;98.90;;;;;;5033318;28;20435;-76
2022/11/17 06:28:10;;;;;;;3.25;2.08;;;10.40;99.10;;;;;;5039462;28;20440;-76
2022/11/17 06:30:37;;;;;;;3.80;1.75;;;10.40;99.20;;;;;;5042415;28;20457;-77
2022/11/17 06:33:05;;;;;;;3.70;1.90;;;10.50;99.10;;;;;;5044529;28;20445;-76
2022/11/17 06:35:34;;;;;;;2.47;1.65;;;10.50;99.00;;;;;;5035926;28;20525;-75
2022/11/17 06:38:01;;;;;;;3.00;1.77;;;10.50;99.10;;;;;;5037517;28;20817;-76
2022/11/17 06:40:28;;;;;;;4.50;2.00;;;10.40;99.60;;;;;;5033916;28;20451;-76
2022/11/17 06:43:07;;;;;;;3.33;1.73;;;10.40;99.40;;;;;;5038109;28;20450;-77
2022/11/17 06:45:36;;;;;;;3.70;2.40;;;10.50;99.30;;;;;;5030291;28;21012;-76
2022/11/17 06:48:03;;;;;;;5.30;2.50;;;10.50;99.50;;;;;;5032065;28;20446;-76
2022/11/17 06:50:30;;;;;;;3.03;2.15;;;10.40;99.70;;;;;;5041688;28;20883;-76
2022/11/17 06:52:57;;;;;;;3.60;2.60;;;10.40;99.90;;;;;;5042108;28;20776;-76
2022/11/17 06:55:24;;;;;;;3.92;2.17;;;10.40;99.90;;;;;;5045424;28;20431;-77
2022/11/17 06:57:51;;;;;;;5.75;2.03;;;10.50;99.90;;;;;;5034642;28;20440;-77
2022/11/17 07:00:19;;;;;;;3.30;2.20;;;10.50;99.90;;;;;;5044237;28;20439;-76
2022/11/17 07:02:47;;;;;;;4.10;2.00;;;10.50;99.90;;;;;;5038795;28;20455;-76
2022/11/17 07:05:14;;;;;;;3.45;2.03;;;10.50;99.90;;;;;;5039840;28;20433;-77
2022/11/17 07:07:40;;;;;;;3.65;1.52;;;10.50;99.90;;;;;;5037596;28;20782;-75
2022/11/17 07:10:08;;;;;;;2.75;1.55;;;10.50;99.90;;;;;;5035532;28;20442;-76
2022/11/17 07:12:35;;;;;;;2.70;1.20;;;10.60;99.80;;;;;;5039938;28;20437;-75
2022/11/17 07:15:02;;;;;;;2.70;1.20;;;10.60;99.00;;;;;;5031829;28;20488;-77
2022/11/17 07:17:29;;;;;;;4.20;2.20;;;10.60;98.20;;;;;;5046508;28;20449;-76
2022/11/17 07:19:57;;;;;;;2.63;0.90;;;10.60;97.50;;;;;;5047406;28;20425;-76
2022/11/17 07:22:24;;;;;;;2.83;1.10;;;10.70;96.60;;;;;;5042114;28;20525;-77
2022/11/17 07:24:50;;;;;;;1.70;0.80;;;10.60;96.50;;;;;;5042256;28;20479;-76
2022/11/17 07:27:17;;;;;;;1.80;0.60;;;10.70;95.80;;;;;;5039850;28;20557;-77
2022/11/17 07:29:44;;;;;;;1.70;0.50;;;10.60;95.00;;;;;;5037233;28;20437;-75
2022/11/17 07:32:13;;;;;;;1.70;0.60;;;10.60;94.50;;;;;;5035545;28;20433;-76
2022/11/17 07:34:41;;;;;;;1.50;0.60;;;10.60;94.90;;;;;;5035732;28;20452;-76
2022/11/17 07:37:09;;;;;;;1.77;0.60;;;10.60;95.00;;;;;;5028273;28;20981;-75
2022/11/17 07:39:36;;;;;;;1.40;0.70;;;10.60;93.60;;;;;;5031740;28;20441;-73
2022/11/17 07:42:03;;;;;;;1.55;0.52;;;10.60;93.40;;;;;;5043987;28;20452;-73
2022/11/17 07:44:30;;;;;;;1.40;0.70;;;10.60;93.30;;;;;;5041843;28;20537;-73
2022/11/17 07:46:57;;;;;;;3.17;0.90;;;10.70;92.30;;;;;;5038994;28;20486;-73
2022/11/17 07:49:23;;;;;;;1.90;0.50;;;10.70;92.30;;;;;;5036259;28;20440;-73
2022/11/17 07:51:50;;;;;;;1.50;0.50;;;10.70;91.80;;;;;;5037372;28;20435;-73
2022/11/17 07:54:18;;;;;;;1.50;0.80;;;10.80;91.70;;;;;;5031383;28;20455;-73
2022/11/17 07:56:45;;;;;;;2.50;0.60;;;10.80;91.00;;;;;;5041720;28;20433;-73
2022/11/17 07:59:12;;;;;;;2.23;0.80;;;10.80;90.80;;;;;;5040712;28;20440;-74
2022/11/17 08:01:39;;;;;;;0.95;0.50;;;10.90;90.90;;;;;;5039826;28;20807;-74
2022/11/17 08:04:06;;;;;;;1.10;0.50;;;10.90;90.90;;;;;;5031558;28;20519;-73
2022/11/17 08:06:33;;;;;;;1.10;0.50;;;10.90;90.70;;;;;;5036605;28;20433;-73
2022/11/17 08:08:59;;;;;;;2.10;0.85;;;10.90;90.70;;;;;;5039416;28;20434;-75
2022/11/17 08:11:27;;;;;;;1.70;0.60;;;10.90;91.30;;;;;;5038658;28;20433;-73
2022/11/17 08:13:55;;;;;;;1.90;0.90;;;10.90;90.60;;;;;;5042379;28;20431;-74
2022/11/17 08:16:24;;;;;;;1.77;0.70;;;10.90;90.90;;;;;;5036062;28;20429;-73
2022/11/17 08:18:51;;;;;;;2.13;0.70;;;10.90;91.10;;;;;;5042006;28;20460;-75
2022/11/17 08:21:17;;;;;;;1.60;0.70;;;10.90;90.80;;;;;;5037438;28;20464;-74
2022/11/17 08:23:44;;;;;;;1.33;0.52;;;11.00;90.80;;;;;;5041043;28;20437;-73
2022/11/17 08:26:11;;;;;;;1.40;0.53;;;11.10;89.50;;;;;;5034717;28;20435;-73
2022/11/17 08:28:39;;;;;;;2.60;1.00;;;11.10;90.30;;;;;;5035882;28;20920;-73
2022/11/17 08:31:07;;;;;;;1.40;0.70;;;11.10;88.70;;;;;;5033414;28;20450;-75
2022/11/17 08:36:21;;;;;;;1.90;0.70;;;11.10;90.20;;;;;;5083769;27;20367;-73
2022/11/17 08:38:48;;;;;;;2.10;0.80;;;11.20;89.90;;;;;;5089116;28;20433;-72
2022/11/17 08:41:14;;;;;;;2.10;0.90;;;11.20;89.90;;;;;;5081883;28;20427;-73
2022/11/17 08:43:41;;;;;;;1.70;1.00;;;11.20;90.30;;;;;;5078363;28;20434;-73
2022/11/17 08:46:11;;;;;;;2.25;0.90;;;11.20;90.20;;;;;;5083879;28;20425;-73
2022/11/17 08:48:38;;;;;;;2.20;1.10;;;11.20;90.30;;;;;;5085248;28;21054;-74
2022/11/17 08:51:06;;;;;;;1.88;1.00;;;11.30;90.30;;;;;;5089904;28;20447;-73
2022/11/17 08:53:34;;;;;;;2.40;0.90;;;11.30;90.30;;;;;;5086878;28;20429;-75
2022/11/17 08:56:01;;;;;;;3.20;1.10;;;11.30;90.70;;;;;;5082737;28;20417;-72
2022/11/17 08:58:28;;;;;;;2.20;0.80;;;11.30;90.40;;;;;;5089419;28;20427;-73
2022/11/17 09:00:54;;;;;;;2.60;0.75;;;11.40;88.30;;;;;;5074224;28;20446;-72
2022/11/17 09:03:22;;;;;;;2.00;0.70;;;11.50;89.10;;;;;;5082442;28;20425;-72
2022/11/17 09:05:49;;;;;;;1.85;0.60;;;11.50;88.80;;;;;;5083896;28;20938;-72
2022/11/17 09:08:16;;;;;;;1.42;0.75;;;11.60;88.50;;;;;;5085832;28;20485;-81
2022/11/17 09:10:48;;;;;;;1.42;0.80;;;11.60;88.30;;;;;;5092576;28;20521;-74
2022/11/17 09:13:15;;;;;;;1.90;0.80;;;11.70;87.00;;;;;;5088301;28;20452;-73
2022/11/17 09:15:41;;;;;;;1.80;0.73;;;11.70;87.70;;;;;;5083219;28;20427;-72
2022/11/17 09:18:08;;;;;;;2.67;0.85;;;11.80;85.40;;;;;;5084830;28;20968;-73
2022/11/17 09:20:35;;;;;;;1.90;0.90;;;11.90;85.20;;;;;;5089849;28;20459;-73
2022/11/17 09:23:02;;;;;;;1.33;0.80;;;11.90;85.70;;;;;;5101069;28;20421;-73
2022/11/17 09:25:29;;;;;;;1.40;0.80;;;12.00;85.60;;;;;;5100997;28;20421;-73
2022/11/17 09:27:57;;;;;;;2.38;1.00;;;12.10;85.10;;;;;;5107440;28;20416;-72
2022/11/17 09:30:24;;;;;;;2.00;0.93;;;12.20;85.40;;;;;;5091905;28;20617;-73
2022/11/17 09:32:51;;;;;;;1.37;0.70;;;12.40;84.60;;;;;;5086501;28;20448;-74
2022/11/17 09:35:19;;;;;;;2.05;1.10;;;12.50;84.30;;;;;;5103583;27;21981;-73
2022/11/17 09:37:46;;;;;;;1.88;0.80;;;12.50;83.20;;;;;;5110173;27;20436;-73
2022/11/17 09:40:17;;;;;;;2.00;0.63;;;12.50;82.70;;;;;;5108636;27;20777;-74
2022/11/17 09:42:45;;;;;;;1.63;0.80;;;12.50;82.30;;;;;;5107933;27;20429;-73
2022/11/17 09:45:19;;;;;;;3.92;1.30;;;12.50;82.10;;;;;;5105964;27;20504;-73
2022/11/17 09:47:52;;;;;;;3.30;1.40;;;12.50;83.20;;;;;;5093328;28;20445;-74
2022/11/17 09:50:25;;;;;;;1.60;0.90;;;12.50;83.70;;;;;;5089516;28;20549;-73
2022/11/17 09:53:02;;;;;;;2.10;0.90;;;12.50;81.50;;;;;;5102532;28;20499;-72
2022/11/17 09:55:32;;;;;;;1.48;0.75;;;12.60;80.70;;;;;;5084258;28;20848;-73
2022/11/17 09:58:08;;;;;;;1.75;0.70;;;12.70;81.80;;;;;;5082650;28;20428;-75
2022/11/17 10:00:38;;;;;;;1.85;0.70;;;12.80;79.90;;;;;;5083174;28;20450;-74
2022/11/17 10:03:16;;;;;;;3.10;1.20;;;12.80;79.70;;;;;;5092879;28;20811;-75
2022/11/17 10:05:44;;;;;;;1.73;0.70;;;12.80;79.10;;;;;;5090296;28;20886;-72
2022/11/17 10:08:15;;;;;;;1.80;0.70;;;12.80;78.20;;;;;;5101904;28;20968;-72
2022/11/17 10:10:44;;;;;;;1.90;0.80;;;12.70;79.40;;;;;;5095306;28;20424;-81
2022/11/17 10:13:23;;;;;;;2.35;0.57;;;12.70;79.60;;;;;;5099463;28;21199;-74
2022/11/17 10:15:55;;;;;;;2.35;0.70;;;12.60;78.60;;;;;;5085152;28;20725;-73
2022/11/17 10:18:22;;;;;;;1.75;0.90;;;12.60;77.80;;;;;;5087378;28;20933;-74
2022/11/17 10:20:50;;;;;;;2.10;0.60;;;12.60;78.70;;;;;;5090890;28;20929;-73
2022/11/17 10:23:20;;;;;;;1.65;0.80;;;12.60;79.30;;;;;;5086214;28;20597;-74
2022/11/17 10:25:47;;;;;;;1.30;0.70;;;12.60;80.20;;;;;;5088902;28;20422;-74
2022/11/17 10:28:26;;;;;;;1.55;0.75;;;12.50;81.40;;;;;;5087403;28;20429;-79
2022/11/17 10:30:56;;;;;;;1.42;0.70;;;12.50;81.20;;;;;;5099100;28;20436;-77
2022/11/17 10:33:34;;;;;;;1.38;0.60;;;12.50;79.50;;;;;;5091018;28;20921;-72
2022/11/17 10:36:01;;;;;;;1.70;0.70;;;12.60;79.90;;;;;;5096973;28;20438;-73
2022/11/17 10:38:29;;;;;;;1.60;0.90;;;12.60;80.00;;;;;;5094055;28;20760;-71
2022/11/17 10:41:00;;;;;;;2.70;0.90;;;12.60;79.90;;;;;;5093763;28;20430;-74
2022/11/17 10:43:30;;;;;;;3.00;1.20;;;12.60;80.60;;;;;;5094116;28;20461;-73
2022/11/17 10:46:01;;;;;;;2.42;0.93;;;12.70;79.40;;;;;;5095442;28;20840;-71
2022/11/17 10:48:31;;;;;;;1.80;0.90;;;12.70;79.00;;;;;;5090014;28;20444;-71
2022/11/17 10:50:59;;;;;;;3.78;1.10;;;12.70;79.70;;;;;;5092673;28;20421;-72
2022/11/17 10:53:36;;;;;;;3.75;0.82;;;12.70;78.30;;;;;;5097910;28;20537;-71
2022/11/17 10:56:07;;;;;;;2.30;0.80;;;12.70;74.70;;;;;;5099810;28;20429;-71
2022/11/17 10:58:55;;;;;;;1.90;0.70;;;12.70;75.80;;;;;;5089643;28;20983;-71
2022/11/17 11:01:31;;;;;;;1.50;0.70;;;12.70;76.00;;;;;;5090773;28;20935;-71
2022/11/17 11:03:58;;;;;;;1.50;0.70;;;12.70;75.00;;;;;;5098781;28;20476;-71
2022/11/17 11:06:28;;;;;;;1.88;0.77;;;12.80;75.40;;;;;;5091824;28;20453;-73
2022/11/17 11:08:58;;;;;;;0.85;0.60;;;12.80;74.70;;;;;;5100688;28;20418;-71
2022/11/17 11:11:43;;;;;;;1.10;0.50;;;12.80;75.50;;;;;;5095847;28;20473;-71
2022/11/17 11:14:19;;;;;;;1.60;0.70;;;12.70;75.40;;;;;;5098311;28;20436;-74
2022/11/17 11:16:49;;;;;;;1.60;0.60;;;12.70;75.00;;;;;;5089064;28;20422;-73
2022/11/17 11:19:19;;;;;;;2.20;0.60;;;12.70;74.10;;;;;;5095898;28;20496;-73
2022/11/17 11:22:07;;;;;;;1.40;0.70;;;12.70;75.00;;;;;;5103781;28;20447;-73
2022/11/17 11:24:40;;;;;;;1.80;0.80;;;12.70;74.10;;;;;;5102992;28;20435;-71
2022/11/17 11:27:23;;;;;;;1.45;0.70;;;12.70;75.30;;;;;;5102892;28;20527;-71
2022/11/17 11:30:01;;;;;;;2.13;0.70;;;12.70;75.00;;;;;;5097948;28;20432;-73
2022/11/17 11:32:36;;;;;;;3.00;0.80;;;12.70;75.00;;;;;;5094902;28;20431;-72
2022/11/17 11:35:36;;;;;;;1.38;0.70;;;12.90;73.70;;;;;;5096732;28;20449;-73
2022/11/17 11:38:16;;;;;;;2.70;1.00;;;13.00;73.10;;;;;;5096532;28;20431;-73
2022/11/17 11:40:53;;;;;;;1.60;0.53;;;13.10;72.00;;;;;;5087718;28;20462;-73
2022/11/17 11:43:29;;;;;;;1.83;0.60;;;13.10;71.70;;;;;;5096623;28;20428;-73
2022/11/17 11:46:05;;;;;;;1.60;0.60;;;13.10;71.40;;;;;;5090193;28;20433;-73
2022/11/17 11:48:36;;;;;;;1.30;0.60;;;13.10;71.00;;;;;;5104983;28;20490;-73
2022/11/17 11:51:10;;;;;;;2.80;0.70;;;13.00;71.60;;;;;;5093660;28;20437;-73
2022/11/17 11:53:46;;;;;;;1.73;0.50;;;13.00;72.30;;;;;;5090203;28;20898;-71
2022/11/17 11:56:17;;;;;;;0.88;0.50;;;13.00;72.00;;;;;;5090738;28;20439;-74
2022/11/17 11:58:49;;;;;;;1.10;0.70;;;12.90;71.20;;;;;;5092774;28;20424;-72
2022/11/17 12:01:19;;;;;;;1.75;0.70;;;12.90;71.70;;;;;;5092349;28;20428;-74
2022/11/17 12:03:58;;;;;;;1.30;0.60;;;12.80;70.30;;;;;;5098053;28;20455;-74
2022/11/17 12:06:42;;;;;;;1.70;0.70;;;13.00;70.50;;;;;;5092025;28;20429;-72
2022/11/17 12:09:37;;;;;;;1.90;0.68;;;13.10;69.00;;;;;;5095608;28;20973;-73
2022/11/17 12:12:08;;;;;;;1.48;0.75;;;13.30;68.10;;;;;;5093029;28;20434;-72
2022/11/17 12:14:36;;;;;;;1.83;0.70;;;13.60;68.10;;;;;;5092894;28;20420;-68
2022/11/17 12:17:07;;;;;;;2.30;0.68;;;13.70;68.80;;;;;;5090522;28;20443;-76
2022/11/17 12:19:52;;;;;;;2.70;1.40;;;13.80;66.70;;;;;;5086215;28;20449;-73
2022/11/17 12:23:02;;;;;;;1.38;0.68;;;13.80;65.40;;;;;;5085945;28;20444;-74
2022/11/17 12:25:31;;;;;;;2.47;0.77;;;13.70;66.00;;;;;;5088074;28;20429;-73
2022/11/17 12:27:58;;;;;;;2.40;0.80;;;13.70;65.70;;;;;;5084834;28;20424;-72
2022/11/17 12:30:51;;;;;;;2.58;0.63;;;13.70;64.70;;;;;;5086212;28;20437;-72
2022/11/17 12:33:18;;;;;;;1.80;1.10;;;13.60;64.20;;;;;;5099056;28;20480;-75
2022/11/17 12:36:06;;;;;;;2.70;0.70;;;13.60;65.20;;;;;;5096584;28;20426;-75
2022/11/17 12:38:40;;;;;;;1.90;0.57;;;13.60;65.70;;;;;;5094780;28;21072;-73
2022/11/17 12:41:07;;;;;;;1.60;0.70;;;13.60;65.40;;;;;;5098925;28;20428;-73
2022/11/17 12:43:34;;;;;;;2.15;0.60;;;13.70;65.80;;;;;;5092230;28;20512;-73
2022/11/17 12:46:14;;;;;;;2.13;0.60;;;13.90;64.20;;;;;;5080282;28;20474;-74
2022/11/17 12:48:48;;;;;;;2.17;0.80;;;14.40;63.50;;;;;;5080433;28;20426;-74
2022/11/17 12:51:27;;;;;;;1.25;0.70;;;15.40;61.50;;;;;;5095306;28;20757;-72
2022/11/17 12:54:06;;;;;;;1.08;0.60;;;15.90;58.00;;;;;;5096655;28;20428;-74
2022/11/17 12:56:51;;;;;;;2.17;0.70;;;16.00;58.80;;;;;;5085625;28;20428;-73
2022/11/17 12:59:41;;;;;;;1.90;0.70;;;16.00;57.80;;;;;;5088915;28;20816;-72
2022/11/17 13:02:21;;;;;;;1.67;0.60;;;15.50;58.60;;;;;;5083505;28;20514;-74
2022/11/17 13:04:53;;;;;;;1.60;0.60;;;15.10;60.40;;;;;;5094285;28;20477;-72
2022/11/17 13:07:24;;;;;;;1.98;0.60;;;14.70;62.50;;;;;;5091633;28;20516;-72
2022/11/17 13:09:52;;;;;;;1.40;0.60;;;14.50;62.50;;;;;;5088109;28;20455;-73
2022/11/17 13:12:23;;;;;;;1.73;0.60;;;14.40;64.20;;;;;;5088337;28;20430;-73
2022/11/17 13:14:55;;;;;;;2.53;0.90;;;14.30;64.70;;;;;;5099060;28;20952;-72
2022/11/17 13:17:25;;;;;;;3.60;0.70;;;14.20;63.80;;;;;;5088331;28;20472;-74
2022/11/17 13:19:59;;;;;;;1.53;0.70;;;14.10;64.20;;;;;;5090660;28;20445;-75
2022/11/17 13:22:27;;;;;;;1.50;0.70;;;14.00;65.30;;;;;;5092891;28;20427;-74
2022/11/17 13:24:54;;;;;;;1.60;0.80;;;13.80;63.90;;;;;;5104918;28;20446;-76
2022/11/17 13:27:23;;;;;;;3.30;0.73;;;13.60;64.30;;;;;;5098831;28;20543;-76
2022/11/17 13:29:50;;;;;;;1.77;0.70;;;13.60;65.20;;;;;;5113312;28;20404;-72
2022/11/17 13:32:20;;;;;;;3.67;1.10;;;13.60;66.40;;;;;;5102911;28;20445;-74
2022/11/17 13:34:49;;;;;;;1.50;0.60;;;13.70;66.10;;;;;;5097474;28;20434;-75
2022/11/17 13:37:18;;;;;;;2.20;0.80;;;13.80;66.70;;;;;;5097057;28;20420;-76
2022/11/17 13:40:01;;;;;;;2.40;0.90;;;13.90;66.50;;;;;;5096734;28;20925;-75
2022/11/17 13:42:31;;;;;;;2.10;0.90;;;14.00;66.10;;;;;;5099242;28;20495;-75